Kittitas — WYQ9302 — position and weather

sailwx.info

Track history (hours):
 
Tides and Currents Weather Stations Pressure Air Temp Water Temp Dewpoint Dewpoint Depression Visibility Wind Speed Wind Dir Waves Ship Positions

Kittitas

Owner: WASHINGTON, STATE OF; Department of Transportation, OLYMPIA, WA. More information available from US FCC via Universal Licensing System and Coast Guard Vessel Documentation Center.

Last reported at 2018-Apr-23 19:11 UTC. Time now 2018-Apr-23 19:30 UTC.
Position N 47°58' W 122°21'.

Length 100 m; draft 4.7 m.

Type: Passenger vessel. MMSI: 366772960.

Date/timePositionNaut miles runAvg speedWind from/ knotsBaromVisibWave heightAir tempDewpointWater temp
2018-Apr-23 19:11N 47°58' W 122°21'211.3
2018-Apr-23 19:00N 47°57' W 122°18'2 1.8
2018-Apr-23 18:09N 47°58' W 122°20'211.4
2018-Apr-23 18:00N 47°57' W 122°18'2 2.5
2018-Apr-23 17:11N 47°58' W 122°21'211.8
2018-Apr-23 17:00N 47°57' W 122°18'2 2.5
2018-Apr-23 16:11N 47°58' W 122°21'211.3
2018-Apr-23 16:00N 47°57' W 122°18'2 1.9
2018-Apr-23 15:09N 47°58' W 122°20'211.4
2018-Apr-23 15:00N 47°57' W 122°18'2 1.9
2018-Apr-23 14:08N 47°58' W 122°20'212.6
2018-Apr-23 14:00N 47°57' W 122°18'2 2.6
2018-Apr-23 13:11N 47°58' W 122°21'212.3
2018-Apr-23 13:01N 47°57' W 122°18'2 2.9
2018-Apr-23 12:16N 47°58' W 122°21'2 8.3
2018-Apr-23 12:00N 47°57' W 122°18'2 0.5
2018-Apr-23 08:13N 47°58' W 122°20'2 8.2
2018-Apr-23 08:00N 47°57' W 122°18'1 1.4
2018-Apr-23 07:07N 47°58' W 122°20'110.6
2018-Apr-23 07:00N 47°57' W 122°18'2 2.8
2018-Apr-23 06:14N 47°58' W 122°21'210.0
2018-Apr-23 06:00N 47°57' W 122°18'1 0.9
2018-Apr-23 05:05N 47°57' W 122°19'1 9.7
2018-Apr-23 05:00N 47°57' W 122°18'2 1.9
2018-Apr-23 04:10N 47°58' W 122°20'2 8.7
2018-Apr-23 03:59N 47°57' W 122°18'2 2.1
2018-Apr-23 03:14N 47°58' W 122°20'2 7.1
2018-Apr-23 03:00N 47°57' W 122°18'2 2.1
2018-Apr-23 02:15N 47°58' W 122°20'2 6.6
2018-Apr-23 02:00N 47°57' W 122°18'2 4.5
2018-Apr-23 01:29N 47°58' W 122°21'2 4.8
2018-Apr-23 01:00N 47°57' W 122°18'2 4.1
2018-Apr-23 00:26N 47°58' W 122°21'2 5.4
2018-Apr-23 00:00N 47°57' W 122°18'2 2.6
2018-Apr-22 23:21N 47°58' W 122°20'2 4.6
2018-Apr-22 22:58N 47°57' W 122°18'2 3.5
2018-Apr-22 22:23N 47°58' W 122°21'2 5.5
2018-Apr-22 22:00N 47°57' W 122°18'2 2.7
2018-Apr-22 21:19N 47°58' W 122°21'2 6.2
2018-Apr-22 21:00N 47°57' W 122°18'2 2.0
2018-Apr-22 20:12N 47°58' W 122°20'2 7.7
2018-Apr-22 20:00N 47°57' W 122°18'2 2.5
2018-Apr-22 19:14N 47°58' W 122°21'2 8.8
2018-Apr-22 19:00N 47°57' W 122°18'2 4.0
2018-Apr-22 18:26N 47°58' W 122°21'2 5.5
2018-Apr-22 18:00N 47°57' W 122°18'2 2.0
2018-Apr-22 17:09N 47°58' W 122°20'211.3
2018-Apr-22 17:00N 47°57' W 122°18'2 3.1
2018-Apr-22 16:15N 47°58' W 122°21'2 8.7
2018-Apr-22 15:59N 47°57' W 122°18'2 2.8
2018-Apr-22 15:13N 47°58' W 122°21'210.4
2018-Apr-22 15:00N 47°57' W 122°18'1 1.6
2018-Apr-22 14:08N 47°58' W 122°20'110.9
2018-Apr-22 14:00N 47°57' W 122°18'2 2.1
2018-Apr-22 13:13N 47°58' W 122°20'2 8.0
2018-Apr-22 13:00N 47°57' W 122°18'1 0.3
2018-Apr-22 08:13N 47°58' W 122°20'1 6.9
2018-Apr-22 08:00N 47°57' W 122°18'2 1.9
2018-Apr-22 07:10N 47°58' W 122°20'210.3
2018-Apr-22 07:00N 47°57' W 122°18'2 1.9
2018-Apr-22 06:10N 47°58' W 122°20'2 9.4
2018-Apr-22 06:00N 47°57' W 122°18'1 1.8
2018-Apr-22 05:10N 47°58' W 122°20'1 8.4
2018-Apr-22 05:00N 47°57' W 122°18'2 2.1
2018-Apr-22 04:13N 47°58' W 122°20'2 7.5
2018-Apr-22 04:00N 47°57' W 122°18'2 3.0
2018-Apr-22 03:27N 47°58' W 122°20'1 2.8
2018-Apr-22 03:00N 47°57' W 122°19'1 2.5
2018-Apr-22 02:30N 47°58' W 122°20'1 2.1
2018-Apr-22 02:00N 47°58' W 122°19'1 1.8
2018-Apr-22 01:28N 47°58' W 122°20'1 2.9
2018-Apr-22 01:00N 47°57' W 122°18'2 3.8
2018-Apr-22 00:28N 47°58' W 122°21'2 4.6
2018-Apr-22 00:00N 47°57' W 122°18'2 3.0
2018-Apr-21 23:20N 47°58' W 122°21'2 6.0
2018-Apr-21 23:00N 47°57' W 122°18'2 2.5
2018-Apr-21 22:15N 47°58' W 122°21'2 7.5
2018-Apr-21 22:00N 47°57' W 122°18'2 2.3
2018-Apr-21 21:14N 47°58' W 122°21'2 8.1
2018-Apr-21 21:00N 47°57' W 122°18'2 2.6
2018-Apr-21 20:12N 47°58' W 122°21'210.2
2018-Apr-21 20:00N 47°57' W 122°18'2 3.0
2018-Apr-21 19:16N 47°58' W 122°21'2 8.4
2018-Apr-21 19:00N 47°57' W 122°18'2 3.2
2018-Apr-21 18:17N 47°58' W 122°21'2 7.9
2018-Apr-21 18:01N 47°57' W 122°18'2 1.9
2018-Apr-21 17:13N 47°58' W 122°20'2 7.1
2018-Apr-21 17:00N 47°57' W 122°18'2 3.1
2018-Apr-21 16:17N 47°58' W 122°21'2 8.0
2018-Apr-21 16:00N 47°57' W 122°18'1 1.7
2018-Apr-21 15:10N 47°58' W 122°20'1 8.8
2018-Apr-21 15:00N 47°57' W 122°18'2 2.8
2018-Apr-21 14:14N 47°58' W 122°21'2 9.9
2018-Apr-21 14:00N 47°57' W 122°18'2 2.8
2018-Apr-21 13:13N 47°58' W 122°21'210.8
2018-Apr-21 13:00N 47°57' W 122°18'2 0.3
2018-Apr-21 08:13N 47°58' W 122°20'2 7.7
2018-Apr-21 08:00N 47°57' W 122°18'2 3.2
2018-Apr-21 07:18N 47°58' W 122°21'2 7.5
2018-Apr-21 07:00N 47°57' W 122°18'1 1.8
2018-Apr-21 06:11N 47°58' W 122°20'1 8.7
2018-Apr-21 06:01N 47°57' W 122°18'2 1.8
2018-Apr-21 05:10N 47°58' W 122°20'2 9.9
2018-Apr-21 05:00N 47°57' W 122°18'2 2.2
2018-Apr-21 04:12N 47°58' W 122°21'2 9.0
2018-Apr-21 04:00N 47°57' W 122°18'2 2.4
2018-Apr-21 03:15N 47°58' W 122°21'2 7.7
2018-Apr-21 03:00N 47°57' W 122°18'2 3.3
2018-Apr-21 02:21N 47°58' W 122°21'2 6.3
2018-Apr-21 02:01N 47°57' W 122°18'1 2.0
2018-Apr-21 01:21N 47°58' W 122°20'1 3.7
2018-Apr-21 01:00N 47°57' W 122°18'2 3.9
2018-Apr-21 00:24N 47°58' W 122°21'2 5.7
2018-Apr-21 00:00N 47°57' W 122°18'2 3.5
2018-Apr-20 23:20N 47°58' W 122°21'2 7.0
2018-Apr-20 23:00N 47°57' W 122°18'2 2.9
2018-Apr-20 22:18N 47°58' W 122°21'2 7.3
2018-Apr-20 22:00N 47°57' W 122°18'2 3.0
2018-Apr-20 21:16N 47°58' W 122°21'2 8.6
2018-Apr-20 21:00N 47°57' W 122°18'1 1.8
2018-Apr-20 20:10N 47°58' W 122°20'1 9.2
2018-Apr-20 20:00N 47°57' W 122°18'1 1.8
2018-Apr-20 19:11N 47°58' W 122°20'1 8.7
2018-Apr-20 19:01N 47°57' W 122°18'2 2.1
2018-Apr-20 18:11N 47°58' W 122°20'2 9.3
2018-Apr-20 18:00N 47°57' W 122°18'2 2.6
2018-Apr-20 17:17N 47°58' W 122°21'2 7.1
2018-Apr-20 17:01N 47°57' W 122°18'1 1.4
2018-Apr-20 16:07N 47°58' W 122°20'110.1
2018-Apr-20 16:00N 47°57' W 122°18'2 2.0
2018-Apr-20 15:10N 47°58' W 122°20'210.3
2018-Apr-20 15:00N 47°57' W 122°18'2 2.0
2018-Apr-20 14:09N 47°58' W 122°20'211.4
2018-Apr-20 14:00N 47°57' W 122°18'2 2.7
2018-Apr-20 13:12N 47°58' W 122°21'211.6
2018-Apr-20 13:00N 47°57' W 122°18'2 2.9
2018-Apr-20 12:16N 47°58' W 122°21'2 8.0
2018-Apr-20 12:00N 47°57' W 122°18'3 0.4
2018-Apr-20 04:39N 47°59' W 122°21'214.7
2018-Apr-20 04:30N 47°57' W 122°19'0 0.4
2018-Apr-20 04:00N 47°57' W 122°19'1 1.9
2018-Apr-20 03:22N 47°58' W 122°20'2 4.1
2018-Apr-20 03:00N 47°57' W 122°18'2 2.5
2018-Apr-20 02:20N 47°58' W 122°20'2 4.8
2018-Apr-20 02:00N 47°57' W 122°18'2 4.0
2018-Apr-20 01:26N 47°58' W 122°21'2 5.2
2018-Apr-20 01:00N 47°57' W 122°18'2 2.7
2018-Apr-20 00:20N 47°58' W 122°21'2 5.3
2018-Apr-20 00:00N 47°57' W 122°18'2 3.1
2018-Apr-19 23:20N 47°58' W 122°21'2 6.5
2018-Apr-19 23:00N 47°57' W 122°18'2 3.4
2018-Apr-19 22:20N 47°58' W 122°21'2 7.0
2018-Apr-19 22:00N 47°57' W 122°18'2 3.3
2018-Apr-19 21:18N 47°58' W 122°21'2 8.2
2018-Apr-19 21:01N 47°57' W 122°18'2 2.1
2018-Apr-19 20:11N 47°58' W 122°20'210.1
2018-Apr-19 20:00N 47°57' W 122°18'2 2.8
2018-Apr-19 19:14N 47°58' W 122°21'210.0
2018-Apr-19 19:00N 47°57' W 122°18'2 2.6
2018-Apr-19 18:13N 47°58' W 122°21'2 9.7
2018-Apr-19 18:00N 47°57' W 122°18'2 4.0
2018-Apr-19 17:26N 47°58' W 122°21'2 5.5
2018-Apr-19 17:00N 47°57' W 122°18'2 2.7
2018-Apr-19 16:14N 47°58' W 122°21'2 9.4
2018-Apr-19 16:00N 47°57' W 122°18'2 1.8
2018-Apr-19 15:11N 47°58' W 122°20'1 8.5
2018-Apr-19 15:00N 47°57' W 122°18'1 1.5
2018-Apr-19 14:08N 47°58' W 122°20'1 9.9
2018-Apr-19 14:01N 47°57' W 122°18'2 1.9
2018-Apr-19 13:09N 47°58' W 122°20'210.5
2018-Apr-19 13:00N 47°57' W 122°18'2 3.1
2018-Apr-19 12:16N 47°58' W 122°21'2 8.6
2018-Apr-19 12:00N 47°57' W 122°18'2 0.6
2018-Apr-19 08:19N 47°58' W 122°21'2 7.0
2018-Apr-19 08:00N 47°57' W 122°18'2 2.9
2018-Apr-19 07:13N 47°58' W 122°21'210.2
2018-Apr-19 07:00N 47°57' W 122°18'2 3.1
2018-Apr-19 06:16N 47°58' W 122°21'2 8.9
2018-Apr-19 06:00N 47°57' W 122°18'1 1.5
2018-Apr-19 05:09N 47°58' W 122°20'1 9.0
2018-Apr-19 05:00N 47°57' W 122°18'2 2.0
2018-Apr-19 04:12N 47°58' W 122°20'2 8.5
2018-Apr-19 04:00N 47°57' W 122°18'1 1.7
2018-Apr-19 03:11N 47°58' W 122°20'1 7.3
2018-Apr-19 03:00N 47°57' W 122°18'2 2.3
2018-Apr-19 02:14N 47°58' W 122°21'2 7.6
2018-Apr-19 02:00N 47°57' W 122°18'2 2.2
2018-Apr-19 01:18N 47°58' W 122°20'2 5.3
2018-Apr-19 01:00N 47°57' W 122°18'2 3.2
2018-Apr-19 00:20N 47°58' W 122°21'2 6.3
2018-Apr-19 00:00N 47°57' W 122°18'2 3.3
2018-Apr-18 23:19N 47°58' W 122°21'2 7.1
2018-Apr-18 23:00N 47°57' W 122°18'2 2.1
2018-Apr-18 22:14N 47°58' W 122°20'2 6.8
2018-Apr-18 22:00N 47°57' W 122°18'2 3.1
2018-Apr-18 21:17N 47°58' W 122°21'2 8.3
2018-Apr-18 21:00N 47°57' W 122°18'1 1.6
2018-Apr-18 20:09N 47°58' W 122°20'1 9.7
2018-Apr-18 20:00N 47°57' W 122°18'2 4.3
2018-Apr-18 19:28N 47°58' W 122°21'2 5.0
2018-Apr-18 19:00N 47°57' W 122°18'2 2.0
2018-Apr-18 18:09N 47°58' W 122°20'211.0
2018-Apr-18 18:00N 47°57' W 122°18'2 3.9
2018-Apr-18 17:26N 47°58' W 122°21'2 5.4
2018-Apr-18 17:00N 47°57' W 122°18'2 1.8
2018-Apr-18 16:11N 47°58' W 122°20'2 8.5
2018-Apr-18 16:00N 47°57' W 122°18'2 2.3
2018-Apr-18 15:11N 47°58' W 122°21'210.9
2018-Apr-18 15:00N 47°57' W 122°18'1 1.7
2018-Apr-18 14:09N 47°58' W 122°20'1 9.9
2018-Apr-18 14:00N 47°57' W 122°18'2 1.9
2018-Apr-18 13:10N 47°58' W 122°20'2 9.5
2018-Apr-18 12:59N 47°57' W 122°18'2 3.3
2018-Apr-18 12:19N 47°58' W 122°21'2 6.4
2018-Apr-18 11:59N 47°57' W 122°18'2 0.3
2018-Apr-18 04:14N 47°59' W 122°21'211.1
2018-Apr-18 04:00N 47°57' W 122°18'2 3.2
2018-Apr-18 03:18N 47°58' W 122°21'2 7.7
2018-Apr-18 03:00N 47°57' W 122°18'2 2.3
2018-Apr-18 02:14N 47°58' W 122°21'2 7.9
2018-Apr-18 02:00N 47°57' W 122°18'2 2.4
2018-Apr-18 01:19N 47°58' W 122°20'2 5.6
2018-Apr-18 01:01N 47°57' W 122°18'2 3.5
2018-Apr-18 00:22N 47°58' W 122°21'2 6.5
2018-Apr-18 00:01N 47°57' W 122°18'1 1.9
2018-Apr-17 23:15N 47°58' W 122°20'1 5.9
2018-Apr-17 23:00N 47°57' W 122°18'2 2.1
2018-Apr-17 22:13N 47°58' W 122°20'2 8.1
2018-Apr-17 22:00N 47°57' W 122°18'2 2.4
2018-Apr-17 21:14N 47°58' W 122°21'2 8.1
2018-Apr-17 21:01N 47°57' W 122°18'2 1.9
2018-Apr-17 20:10N 47°58' W 122°20'210.1
2018-Apr-17 20:00N 47°57' W 122°18'2 3.2
2018-Apr-17 19:17N 47°58' W 122°21'2 8.5
2018-Apr-17 19:00N 47°57' W 122°18'2 2.0
2018-Apr-17 18:11N 47°58' W 122°20'2 9.5
2018-Apr-17 18:00N 47°57' W 122°18'2 1.9
2018-Apr-17 17:09N 47°58' W 122°20'210.1
2018-Apr-17 17:00N 47°57' W 122°18'2 3.3
2018-Apr-17 16:19N 47°58' W 122°21'2 6.9
2018-Apr-17 15:59N 47°57' W 122°18'2 2.5
2018-Apr-17 15:12N 47°58' W 122°21'2 9.4
2018-Apr-17 15:00N 47°57' W 122°18'2 2.0
2018-Apr-17 14:09N 47°58' W 122°20'210.8
2018-Apr-17 14:00N 47°57' W 122°18'1 1.6
2018-Apr-17 13:08N 47°58' W 122°20'1 9.6
2018-Apr-17 12:59N 47°57' W 122°18'2 2.3
2018-Apr-17 12:15N 47°58' W 122°20'2 6.8
2018-Apr-17 12:00N 47°57' W 122°18'3 0.3
2018-Apr-17 04:11N 47°59' W 122°21'214.0
2018-Apr-17 04:00N 47°57' W 122°18'1 1.8
2018-Apr-17 03:13N 47°58' W 122°20'1 7.3
2018-Apr-17 03:00N 47°57' W 122°18'2 2.0
2018-Apr-17 02:13N 47°58' W 122°20'2 7.7
2018-Apr-17 02:00N 47°57' W 122°18'2 3.7
2018-Apr-17 01:23N 47°58' W 122°21'2 6.2
2018-Apr-17 01:00N 47°57' W 122°18'2 4.2
2018-Apr-17 00:27N 47°58' W 122°21'2 5.2
2018-Apr-17 00:00N 47°57' W 122°18'2 2.1
2018-Apr-16 23:14N 47°58' W 122°20'2 7.2
2018-Apr-16 23:00N 47°57' W 122°18'2 3.1
2018-Apr-16 22:16N 47°58' W 122°21'2 8.5
2018-Apr-16 22:00N 47°57' W 122°18'2 3.0
2018-Apr-16 21:15N 47°58' W 122°21'2 9.0
2018-Apr-16 21:00N 47°57' W 122°18'2 2.5
2018-Apr-16 20:13N 47°58' W 122°21'210.0
2018-Apr-16 20:00N 47°57' W 122°18'2 2.1
2018-Apr-16 19:10N 47°58' W 122°20'210.6
2018-Apr-16 19:00N 47°57' W 122°18'1 1.5
2018-Apr-16 18:08N 47°58' W 122°20'110.7
2018-Apr-16 18:01N 47°57' W 122°18'2 2.2
2018-Apr-16 17:10N 47°58' W 122°21'210.7
2018-Apr-16 17:00N 47°57' W 122°18'1 1.7
2018-Apr-16 16:09N 47°58' W 122°20'110.6
2018-Apr-16 16:01N 47°57' W 122°18'2 1.9
2018-Apr-16 15:09N 47°58' W 122°20'210.6
2018-Apr-16 15:00N 47°57' W 122°18'1 1.6
2018-Apr-16 14:08N 47°58' W 122°20'111.4
2018-Apr-16 14:00N 47°57' W 122°18'2 2.2
2018-Apr-16 13:10N 47°58' W 122°21'211.7
2018-Apr-16 13:00N 47°57' W 122°18'2 2.2
2018-Apr-16 12:14N 47°58' W 122°21'2 7.8
2018-Apr-16 12:00N 47°57' W 122°18'1 0.4
2018-Apr-16 08:14N 47°58' W 122°20'1 6.2
2018-Apr-16 08:00N 47°57' W 122°18'1 1.7
2018-Apr-16 07:08N 47°58' W 122°20'110.7
2018-Apr-16 07:00N 47°57' W 122°18'2 4.0
2018-Apr-16 06:26N 47°58' W 122°21'2 5.1
2018-Apr-16 05:59N 47°57' W 122°18'2 4.5
2018-Apr-16 05:28N 47°58' W 122°21'2 4.9
2018-Apr-16 05:00N 47°57' W 122°18'2 3.3
2018-Apr-16 04:18N 47°58' W 122°21'2 7.7
2018-Apr-16 04:00N 47°57' W 122°18'2 3.5
2018-Apr-16 03:20N 47°58' W 122°21'2 7.0
2018-Apr-16 03:00N 47°57' W 122°18'2 3.3
2018-Apr-16 02:20N 47°58' W 122°21'2 7.1
2018-Apr-16 02:00N 47°57' W 122°18'2 0.9
2018-Apr-15 23:29N 47°58' W 122°21'2 4.9
2018-Apr-15 23:00N 47°57' W 122°18'2 2.1
2018-Apr-15 22:15N 47°58' W 122°20'2 6.4
2018-Apr-15 22:00N 47°57' W 122°18'2 2.7
2018-Apr-15 21:18N 47°58' W 122°20'2 6.0
2018-Apr-15 20:59N 47°57' W 122°18'2 2.6
2018-Apr-15 20:11N 47°58' W 122°21'210.9
2018-Apr-15 20:00N 47°57' W 122°18'2 2.7
2018-Apr-15 19:13N 47°58' W 122°21'210.6
2018-Apr-15 19:00N 47°57' W 122°18'2 2.9
2018-Apr-15 18:14N 47°58' W 122°21'2 9.5
2018-Apr-15 18:00N 47°57' W 122°18'2 3.1
2018-Apr-15 17:15N 47°58' W 122°21'2 8.9
2018-Apr-15 17:00N 47°57' W 122°18'2 2.0
2018-Apr-15 16:09N 47°58' W 122°20'210.8
2018-Apr-15 16:00N 47°57' W 122°18'2 2.8
2018-Apr-15 15:13N 47°58' W 122°21'210.6
2018-Apr-15 15:01N 47°57' W 122°18'1 0.1
2018-Apr-14 21:11N 47°58' W 122°20'1 7.3
2018-Apr-14 21:00N 47°57' W 122°18'2 2.0
2018-Apr-14 20:10N 47°58' W 122°20'211.1
2018-Apr-14 20:00N 47°57' W 122°18'2 1.9
2018-Apr-14 19:09N 47°58' W 122°20'211.5
2018-Apr-14 19:00N 47°57' W 122°18'2 2.7
2018-Apr-14 18:13N 47°58' W 122°21'210.2
2018-Apr-14 18:00N 47°57' W 122°18'2 2.1
2018-Apr-14 17:11N 47°58' W 122°21'2 9.9
2018-Apr-14 17:00N 47°57' W 122°18'2 2.7
2018-Apr-14 16:12N 47°58' W 122°21'211.2
2018-Apr-14 16:00N 47°57' W 122°18'2 1.8
2018-Apr-14 15:08N 47°58' W 122°20'2 8.4
2018-Apr-14 14:57N 47°57' W 122°18'1 1.8
2018-Apr-14 14:08N 47°58' W 122°20'111.1
2018-Apr-14 14:00N 47°57' W 122°18'2 2.2
2018-Apr-14 13:09N 47°58' W 122°21'212.8
2018-Apr-14 13:00N 47°57' W 122°18'2 0.4
2018-Apr-14 08:16N 47°58' W 122°21'2 8.0
2018-Apr-14 08:00N 47°57' W 122°18'2 2.6
2018-Apr-14 07:13N 47°58' W 122°21'2 9.4
2018-Apr-14 07:00N 47°57' W 122°18'2 2.0
2018-Apr-14 06:11N 47°58' W 122°20'2 9.4
2018-Apr-14 06:00N 47°57' W 122°18'2 3.3
2018-Apr-14 05:19N 47°58' W 122°21'2 7.4
2018-Apr-14 05:00N 47°57' W 122°18'2 4.0
2018-Apr-14 04:25N 47°58' W 122°21'2 5.7
2018-Apr-14 04:00N 47°57' W 122°18'2 4.6
2018-Apr-14 03:30N 47°58' W 122°21'2 4.7
2018-Apr-14 03:00N 47°57' W 122°18'2 4.1
2018-Apr-14 02:27N 47°58' W 122°21'2 5.1
2018-Apr-14 01:59N 47°57' W 122°18'2 2.8
2018-Apr-14 01:25N 47°58' W 122°20'2 4.0
2018-Apr-14 01:00N 47°57' W 122°18'2 3.8
2018-Apr-14 00:28N 47°58' W 122°21'2 4.4
2018-Apr-14 00:00N 47°57' W 122°18'2 3.8
2018-Apr-13 23:26N 47°58' W 122°21'2 5.3
2018-Apr-13 23:00N 47°57' W 122°18'1 1.7
2018-Apr-13 22:14N 47°57' W 122°20'1 6.0
2018-Apr-13 22:00N 47°57' W 122°18'2 2.9
2018-Apr-13 21:16N 47°58' W 122°21'2 8.4
2018-Apr-13 21:00N 47°57' W 122°18'2 1.8
2018-Apr-13 20:10N 47°58' W 122°20'2 9.0
2018-Apr-13 20:00N 47°57' W 122°18'2 4.4
2018-Apr-13 19:28N 47°58' W 122°21'  
Track history (hours):
 
Tides and Currents Weather Stations Pressure Air Temp Water Temp Dewpoint Dewpoint Depression Visibility Wind Speed Wind Dir Waves Ship Positions

Kittitas

Owner: WASHINGTON, STATE OF; Department of Transportation, OLYMPIA, WA. More information available from US FCC via Universal Licensing System and Coast Guard Vessel Documentation Center.

Last reported at 2018-Apr-23 19:11 UTC. Time now 2018-Apr-23 19:30 UTC.
Position N 47°58' W 122°21'.

Length 100 m; draft 4.7 m.

Type: Passenger vessel. MMSI: 366772960.

Date/timePositionNaut miles runAvg speedWind from/ knotsBaromVisibWave heightAir tempDewpointWater temp
2018-Apr-23 19:11N 47°58' W 122°21'211.3
2018-Apr-23 19:00N 47°57' W 122°18'2 1.8
2018-Apr-23 18:09N 47°58' W 122°20'211.4
2018-Apr-23 18:00N 47°57' W 122°18'2 2.5
2018-Apr-23 17:11N 47°58' W 122°21'211.8
2018-Apr-23 17:00N 47°57' W 122°18'2 2.5
2018-Apr-23 16:11N 47°58' W 122°21'211.3
2018-Apr-23 16:00N 47°57' W 122°18'2 1.9
2018-Apr-23 15:09N 47°58' W 122°20'211.4
2018-Apr-23 15:00N 47°57' W 122°18'2 1.9
2018-Apr-23 14:08N 47°58' W 122°20'212.6
2018-Apr-23 14:00N 47°57' W 122°18'2 2.6
2018-Apr-23 13:11N 47°58' W 122°21'212.3
2018-Apr-23 13:01N 47°57' W 122°18'2 2.9
2018-Apr-23 12:16N 47°58' W 122°21'2 8.3
2018-Apr-23 12:00N 47°57' W 122°18'2 0.5
2018-Apr-23 08:13N 47°58' W 122°20'2 8.2
2018-Apr-23 08:00N 47°57' W 122°18'1 1.4
2018-Apr-23 07:07N 47°58' W 122°20'110.6
2018-Apr-23 07:00N 47°57' W 122°18'2 2.8
2018-Apr-23 06:14N 47°58' W 122°21'210.0
2018-Apr-23 06:00N 47°57' W 122°18'1 0.9
2018-Apr-23 05:05N 47°57' W 122°19'1 9.7
2018-Apr-23 05:00N 47°57' W 122°18'2 1.9
2018-Apr-23 04:10N 47°58' W 122°20'2 8.7
2018-Apr-23 03:59N 47°57' W 122°18'2 2.1
2018-Apr-23 03:14N 47°58' W 122°20'2 7.1
2018-Apr-23 03:00N 47°57' W 122°18'2 2.1
2018-Apr-23 02:15N 47°58' W 122°20'2 6.6
2018-Apr-23 02:00N 47°57' W 122°18'2 4.5
2018-Apr-23 01:29N 47°58' W 122°21'2 4.8
2018-Apr-23 01:00N 47°57' W 122°18'2 4.1
2018-Apr-23 00:26N 47°58' W 122°21'2 5.4
2018-Apr-23 00:00N 47°57' W 122°18'2 2.6
2018-Apr-22 23:21N 47°58' W 122°20'2 4.6
2018-Apr-22 22:58N 47°57' W 122°18'2 3.5
2018-Apr-22 22:23N 47°58' W 122°21'2 5.5
2018-Apr-22 22:00N 47°57' W 122°18'2 2.7
2018-Apr-22 21:19N 47°58' W 122°21'2 6.2
2018-Apr-22 21:00N 47°57' W 122°18'2 2.0
2018-Apr-22 20:12N 47°58' W 122°20'2 7.7
2018-Apr-22 20:00N 47°57' W 122°18'2 2.5
2018-Apr-22 19:14N 47°58' W 122°21'2 8.8
2018-Apr-22 19:00N 47°57' W 122°18'2 4.0
2018-Apr-22 18:26N 47°58' W 122°21'2 5.5
2018-Apr-22 18:00N 47°57' W 122°18'2 2.0
2018-Apr-22 17:09N 47°58' W 122°20'211.3
2018-Apr-22 17:00N 47°57' W 122°18'2 3.1
2018-Apr-22 16:15N 47°58' W 122°21'2 8.7
2018-Apr-22 15:59N 47°57' W 122°18'2 2.8
2018-Apr-22 15:13N 47°58' W 122°21'210.4
2018-Apr-22 15:00N 47°57' W 122°18'1 1.6
2018-Apr-22 14:08N 47°58' W 122°20'110.9
2018-Apr-22 14:00N 47°57' W 122°18'2 2.1
2018-Apr-22 13:13N 47°58' W 122°20'2 8.0
2018-Apr-22 13:00N 47°57' W 122°18'1 0.3
2018-Apr-22 08:13N 47°58' W 122°20'1 6.9
2018-Apr-22 08:00N 47°57' W 122°18'2 1.9
2018-Apr-22 07:10N 47°58' W 122°20'210.3
2018-Apr-22 07:00N 47°57' W 122°18'2 1.9
2018-Apr-22 06:10N 47°58' W 122°20'2 9.4
2018-Apr-22 06:00N 47°57' W 122°18'1 1.8
2018-Apr-22 05:10N 47°58' W 122°20'1 8.4
2018-Apr-22 05:00N 47°57' W 122°18'2 2.1
2018-Apr-22 04:13N 47°58' W 122°20'2 7.5
2018-Apr-22 04:00N 47°57' W 122°18'2 3.0
2018-Apr-22 03:27N 47°58' W 122°20'1 2.8
2018-Apr-22 03:00N 47°57' W 122°19'1 2.5
2018-Apr-22 02:30N 47°58' W 122°20'1 2.1
2018-Apr-22 02:00N 47°58' W 122°19'1 1.8
2018-Apr-22 01:28N 47°58' W 122°20'1 2.9
2018-Apr-22 01:00N 47°57' W 122°18'2 3.8
2018-Apr-22 00:28N 47°58' W 122°21'2 4.6
2018-Apr-22 00:00N 47°57' W 122°18'2 3.0
2018-Apr-21 23:20N 47°58' W 122°21'2 6.0
2018-Apr-21 23:00N 47°57' W 122°18'2 2.5
2018-Apr-21 22:15N 47°58' W 122°21'2 7.5
2018-Apr-21 22:00N 47°57' W 122°18'2 2.3
2018-Apr-21 21:14N 47°58' W 122°21'2 8.1
2018-Apr-21 21:00N 47°57' W 122°18'2 2.6
2018-Apr-21 20:12N 47°58' W 122°21'210.2
2018-Apr-21 20:00N 47°57' W 122°18'2 3.0
2018-Apr-21 19:16N 47°58' W 122°21'2 8.4
2018-Apr-21 19:00N 47°57' W 122°18'2 3.2
2018-Apr-21 18:17N 47°58' W 122°21'2 7.9
2018-Apr-21 18:01N 47°57' W 122°18'2 1.9
2018-Apr-21 17:13N 47°58' W 122°20'2 7.1
2018-Apr-21 17:00N 47°57' W 122°18'2 3.1
2018-Apr-21 16:17N 47°58' W 122°21'2 8.0
2018-Apr-21 16:00N 47°57' W 122°18'1 1.7
2018-Apr-21 15:10N 47°58' W 122°20'1 8.8
2018-Apr-21 15:00N 47°57' W 122°18'2 2.8
2018-Apr-21 14:14N 47°58' W 122°21'2 9.9
2018-Apr-21 14:00N 47°57' W 122°18'2 2.8
2018-Apr-21 13:13N 47°58' W 122°21'210.8
2018-Apr-21 13:00N 47°57' W 122°18'2 0.3
2018-Apr-21 08:13N 47°58' W 122°20'2 7.7
2018-Apr-21 08:00N 47°57' W 122°18'2 3.2
2018-Apr-21 07:18N 47°58' W 122°21'2 7.5
2018-Apr-21 07:00N 47°57' W 122°18'1 1.8
2018-Apr-21 06:11N 47°58' W 122°20'1 8.7
2018-Apr-21 06:01N 47°57' W 122°18'2 1.8
2018-Apr-21 05:10N 47°58' W 122°20'2 9.9
2018-Apr-21 05:00N 47°57' W 122°18'2 2.2
2018-Apr-21 04:12N 47°58' W 122°21'2 9.0
2018-Apr-21 04:00N 47°57' W 122°18'2 2.4
2018-Apr-21 03:15N 47°58' W 122°21'2 7.7
2018-Apr-21 03:00N 47°57' W 122°18'2 3.3
2018-Apr-21 02:21N 47°58' W 122°21'2 6.3
2018-Apr-21 02:01N 47°57' W 122°18'1 2.0
2018-Apr-21 01:21N 47°58' W 122°20'1 3.7
2018-Apr-21 01:00N 47°57' W 122°18'2 3.9
2018-Apr-21 00:24N 47°58' W 122°21'2 5.7
2018-Apr-21 00:00N 47°57' W 122°18'2 3.5
2018-Apr-20 23:20N 47°58' W 122°21'2 7.0
2018-Apr-20 23:00N 47°57' W 122°18'2 2.9
2018-Apr-20 22:18N 47°58' W 122°21'2 7.3
2018-Apr-20 22:00N 47°57' W 122°18'2 3.0
2018-Apr-20 21:16N 47°58' W 122°21'2 8.6
2018-Apr-20 21:00N 47°57' W 122°18'1 1.8
2018-Apr-20 20:10N 47°58' W 122°20'1 9.2
2018-Apr-20 20:00N 47°57' W 122°18'1 1.8
2018-Apr-20 19:11N 47°58' W 122°20'1 8.7
2018-Apr-20 19:01N 47°57' W 122°18'2 2.1
2018-Apr-20 18:11N 47°58' W 122°20'2 9.3
2018-Apr-20 18:00N 47°57' W 122°18'2 2.6
2018-Apr-20 17:17N 47°58' W 122°21'2 7.1
2018-Apr-20 17:01N 47°57' W 122°18'1 1.4
2018-Apr-20 16:07N 47°58' W 122°20'110.1
2018-Apr-20 16:00N 47°57' W 122°18'2 2.0
2018-Apr-20 15:10N 47°58' W 122°20'210.3
2018-Apr-20 15:00N 47°57' W 122°18'2 2.0
2018-Apr-20 14:09N 47°58' W 122°20'211.4
2018-Apr-20 14:00N 47°57' W 122°18'2 2.7
2018-Apr-20 13:12N 47°58' W 122°21'211.6
2018-Apr-20 13:00N 47°57' W 122°18'2 2.9
2018-Apr-20 12:16N 47°58' W 122°21'2 8.0
2018-Apr-20 12:00N 47°57' W 122°18'3 0.4
2018-Apr-20 04:39N 47°59' W 122°21'214.7
2018-Apr-20 04:30N 47°57' W 122°19'0 0.4
2018-Apr-20 04:00N 47°57' W 122°19'1 1.9
2018-Apr-20 03:22N 47°58' W 122°20'2 4.1
2018-Apr-20 03:00N 47°57' W 122°18'2 2.5
2018-Apr-20 02:20N 47°58' W 122°20'2 4.8
2018-Apr-20 02:00N 47°57' W 122°18'2 4.0
2018-Apr-20 01:26N 47°58' W 122°21'2 5.2
2018-Apr-20 01:00N 47°57' W 122°18'2 2.7
2018-Apr-20 00:20N 47°58' W 122°21'2 5.3
2018-Apr-20 00:00N 47°57' W 122°18'2 3.1
2018-Apr-19 23:20N 47°58' W 122°21'2 6.5
2018-Apr-19 23:00N 47°57' W 122°18'2 3.4
2018-Apr-19 22:20N 47°58' W 122°21'2 7.0
2018-Apr-19 22:00N 47°57' W 122°18'2 3.3
2018-Apr-19 21:18N 47°58' W 122°21'2 8.2
2018-Apr-19 21:01N 47°57' W 122°18'2 2.1
2018-Apr-19 20:11N 47°58' W 122°20'210.1
2018-Apr-19 20:00N 47°57' W 122°18'2 2.8
2018-Apr-19 19:14N 47°58' W 122°21'210.0
2018-Apr-19 19:00N 47°57' W 122°18'2 2.6
2018-Apr-19 18:13N 47°58' W 122°21'2 9.7
2018-Apr-19 18:00N 47°57' W 122°18'2 4.0
2018-Apr-19 17:26N 47°58' W 122°21'2 5.5
2018-Apr-19 17:00N 47°57' W 122°18'2 2.7
2018-Apr-19 16:14N 47°58' W 122°21'2 9.4
2018-Apr-19 16:00N 47°57' W 122°18'2 1.8
2018-Apr-19 15:11N 47°58' W 122°20'1 8.5
2018-Apr-19 15:00N 47°57' W 122°18'1 1.5
2018-Apr-19 14:08N 47°58' W 122°20'1 9.9
2018-Apr-19 14:01N 47°57' W 122°18'2 1.9
2018-Apr-19 13:09N 47°58' W 122°20'210.5
2018-Apr-19 13:00N 47°57' W 122°18'2 3.1
2018-Apr-19 12:16N 47°58' W 122°21'2 8.6
2018-Apr-19 12:00N 47°57' W 122°18'2 0.6
2018-Apr-19 08:19N 47°58' W 122°21'2 7.0
2018-Apr-19 08:00N 47°57' W 122°18'2 2.9
2018-Apr-19 07:13N 47°58' W 122°21'210.2
2018-Apr-19 07:00N 47°57' W 122°18'2 3.1
2018-Apr-19 06:16N 47°58' W 122°21'2 8.9
2018-Apr-19 06:00N 47°57' W 122°18'1 1.5
2018-Apr-19 05:09N 47°58' W 122°20'1 9.0
2018-Apr-19 05:00N 47°57' W 122°18'2 2.0
2018-Apr-19 04:12N 47°58' W 122°20'2 8.5
2018-Apr-19 04:00N 47°57' W 122°18'1 1.7
2018-Apr-19 03:11N 47°58' W 122°20'1 7.3
2018-Apr-19 03:00N 47°57' W 122°18'2 2.3
2018-Apr-19 02:14N 47°58' W 122°21'2 7.6
2018-Apr-19 02:00N 47°57' W 122°18'2 2.2
2018-Apr-19 01:18N 47°58' W 122°20'2 5.3
2018-Apr-19 01:00N 47°57' W 122°18'2 3.2
2018-Apr-19 00:20N 47°58' W 122°21'2 6.3
2018-Apr-19 00:00N 47°57' W 122°18'2 3.3
2018-Apr-18 23:19N 47°58' W 122°21'2 7.1
2018-Apr-18 23:00N 47°57' W 122°18'2 2.1
2018-Apr-18 22:14N 47°58' W 122°20'2 6.8
2018-Apr-18 22:00N 47°57' W 122°18'2 3.1
2018-Apr-18 21:17N 47°58' W 122°21'2 8.3
2018-Apr-18 21:00N 47°57' W 122°18'1 1.6
2018-Apr-18 20:09N 47°58' W 122°20'1 9.7
2018-Apr-18 20:00N 47°57' W 122°18'2 4.3
2018-Apr-18 19:28N 47°58' W 122°21'2 5.0
2018-Apr-18 19:00N 47°57' W 122°18'2 2.0
2018-Apr-18 18:09N 47°58' W 122°20'211.0
2018-Apr-18 18:00N 47°57' W 122°18'2 3.9
2018-Apr-18 17:26N 47°58' W 122°21'2 5.4
2018-Apr-18 17:00N 47°57' W 122°18'2 1.8
2018-Apr-18 16:11N 47°58' W 122°20'2 8.5
2018-Apr-18 16:00N 47°57' W 122°18'2 2.3
2018-Apr-18 15:11N 47°58' W 122°21'210.9
2018-Apr-18 15:00N 47°57' W 122°18'1 1.7
2018-Apr-18 14:09N 47°58' W 122°20'1 9.9
2018-Apr-18 14:00N 47°57' W 122°18'2 1.9
2018-Apr-18 13:10N 47°58' W 122°20'2 9.5
2018-Apr-18 12:59N 47°57' W 122°18'2 3.3
2018-Apr-18 12:19N 47°58' W 122°21'2 6.4
2018-Apr-18 11:59N 47°57' W 122°18'2 0.3
2018-Apr-18 04:14N 47°59' W 122°21'211.1
2018-Apr-18 04:00N 47°57' W 122°18'2 3.2
2018-Apr-18 03:18N 47°58' W 122°21'2 7.7
2018-Apr-18 03:00N 47°57' W 122°18'2 2.3
2018-Apr-18 02:14N 47°58' W 122°21'2 7.9
2018-Apr-18 02:00N 47°57' W 122°18'2 2.4
2018-Apr-18 01:19N 47°58' W 122°20'2 5.6
2018-Apr-18 01:01N 47°57' W 122°18'2 3.5
2018-Apr-18 00:22N 47°58' W 122°21'2 6.5
2018-Apr-18 00:01N 47°57' W 122°18'1 1.9
2018-Apr-17 23:15N 47°58' W 122°20'1 5.9
2018-Apr-17 23:00N 47°57' W 122°18'2 2.1
2018-Apr-17 22:13N 47°58' W 122°20'2 8.1
2018-Apr-17 22:00N 47°57' W 122°18'2 2.4
2018-Apr-17 21:14N 47°58' W 122°21'2 8.1
2018-Apr-17 21:01N 47°57' W 122°18'2 1.9
2018-Apr-17 20:10N 47°58' W 122°20'210.1
2018-Apr-17 20:00N 47°57' W 122°18'2 3.2
2018-Apr-17 19:17N 47°58' W 122°21'2 8.5
2018-Apr-17 19:00N 47°57' W 122°18'2 2.0
2018-Apr-17 18:11N 47°58' W 122°20'2 9.5
2018-Apr-17 18:00N 47°57' W 122°18'2 1.9
2018-Apr-17 17:09N 47°58' W 122°20'210.1
2018-Apr-17 17:00N 47°57' W 122°18'2 3.3
2018-Apr-17 16:19N 47°58' W 122°21'2 6.9
2018-Apr-17 15:59N 47°57' W 122°18'2 2.5
2018-Apr-17 15:12N 47°58' W 122°21'2 9.4
2018-Apr-17 15:00N 47°57' W 122°18'2 2.0
2018-Apr-17 14:09N 47°58' W 122°20'210.8
2018-Apr-17 14:00N 47°57' W 122°18'1 1.6
2018-Apr-17 13:08N 47°58' W 122°20'1 9.6
2018-Apr-17 12:59N 47°57' W 122°18'2 2.3
2018-Apr-17 12:15N 47°58' W 122°20'2 6.8
2018-Apr-17 12:00N 47°57' W 122°18'3 0.3
2018-Apr-17 04:11N 47°59' W 122°21'214.0
2018-Apr-17 04:00N 47°57' W 122°18'1 1.8
2018-Apr-17 03:13N 47°58' W 122°20'1 7.3
2018-Apr-17 03:00N 47°57' W 122°18'2 2.0
2018-Apr-17 02:13N 47°58' W 122°20'2 7.7
2018-Apr-17 02:00N 47°57' W 122°18'2 3.7
2018-Apr-17 01:23N 47°58' W 122°21'2 6.2
2018-Apr-17 01:00N 47°57' W 122°18'2 4.2
2018-Apr-17 00:27N 47°58' W 122°21'2 5.2
2018-Apr-17 00:00N 47°57' W 122°18'2 2.1
2018-Apr-16 23:14N 47°58' W 122°20'2 7.2
2018-Apr-16 23:00N 47°57' W 122°18'2 3.1
2018-Apr-16 22:16N 47°58' W 122°21'2 8.5
2018-Apr-16 22:00N 47°57' W 122°18'2 3.0
2018-Apr-16 21:15N 47°58' W 122°21'2 9.0
2018-Apr-16 21:00N 47°57' W 122°18'2 2.5
2018-Apr-16 20:13N 47°58' W 122°21'210.0
2018-Apr-16 20:00N 47°57' W 122°18'2 2.1
2018-Apr-16 19:10N 47°58' W 122°20'210.6
2018-Apr-16 19:00N 47°57' W 122°18'1 1.5
2018-Apr-16 18:08N 47°58' W 122°20'110.7
2018-Apr-16 18:01N 47°57' W 122°18'2 2.2
2018-Apr-16 17:10N 47°58' W 122°21'210.7
2018-Apr-16 17:00N 47°57' W 122°18'1 1.7
2018-Apr-16 16:09N 47°58' W 122°20'110.6
2018-Apr-16 16:01N 47°57' W 122°18'2 1.9
2018-Apr-16 15:09N 47°58' W 122°20'210.6
2018-Apr-16 15:00N 47°57' W 122°18'1 1.6
2018-Apr-16 14:08N 47°58' W 122°20'111.4
2018-Apr-16 14:00N 47°57' W 122°18'2 2.2
2018-Apr-16 13:10N 47°58' W 122°21'211.7
2018-Apr-16 13:00N 47°57' W 122°18'2 2.2
2018-Apr-16 12:14N 47°58' W 122°21'2 7.8
2018-Apr-16 12:00N 47°57' W 122°18'1 0.4
2018-Apr-16 08:14N 47°58' W 122°20'1 6.2
2018-Apr-16 08:00N 47°57' W 122°18'1 1.7
2018-Apr-16 07:08N 47°58' W 122°20'110.7
2018-Apr-16 07:00N 47°57' W 122°18'2 4.0
2018-Apr-16 06:26N 47°58' W 122°21'2 5.1
2018-Apr-16 05:59N 47°57' W 122°18'2 4.5
2018-Apr-16 05:28N 47°58' W 122°21'2 4.9
2018-Apr-16 05:00N 47°57' W 122°18'2 3.3
2018-Apr-16 04:18N 47°58' W 122°21'2 7.7
2018-Apr-16 04:00N 47°57' W 122°18'2 3.5
2018-Apr-16 03:20N 47°58' W 122°21'2 7.0
2018-Apr-16 03:00N 47°57' W 122°18'2 3.3
2018-Apr-16 02:20N 47°58' W 122°21'2 7.1
2018-Apr-16 02:00N 47°57' W 122°18'2 0.9
2018-Apr-15 23:29N 47°58' W 122°21'2 4.9
2018-Apr-15 23:00N 47°57' W 122°18'2 2.1
2018-Apr-15 22:15N 47°58' W 122°20'2 6.4
2018-Apr-15 22:00N 47°57' W 122°18'2 2.7
2018-Apr-15 21:18N 47°58' W 122°20'2 6.0
2018-Apr-15 20:59N 47°57' W 122°18'2 2.6
2018-Apr-15 20:11N 47°58' W 122°21'210.9
2018-Apr-15 20:00N 47°57' W 122°18'2 2.7
2018-Apr-15 19:13N 47°58' W 122°21'210.6
2018-Apr-15 19:00N 47°57' W 122°18'2 2.9
2018-Apr-15 18:14N 47°58' W 122°21'2 9.5
2018-Apr-15 18:00N 47°57' W 122°18'2 3.1
2018-Apr-15 17:15N 47°58' W 122°21'2 8.9
2018-Apr-15 17:00N 47°57' W 122°18'2 2.0
2018-Apr-15 16:09N 47°58' W 122°20'210.8
2018-Apr-15 16:00N 47°57' W 122°18'2 2.8
2018-Apr-15 15:13N 47°58' W 122°21'210.6
2018-Apr-15 15:01N 47°57' W 122°18'1 0.1
2018-Apr-14 21:11N 47°58' W 122°20'1 7.3
2018-Apr-14 21:00N 47°57' W 122°18'2 2.0
2018-Apr-14 20:10N 47°58' W 122°20'211.1
2018-Apr-14 20:00N 47°57' W 122°18'2 1.9
2018-Apr-14 19:09N 47°58' W 122°20'211.5
2018-Apr-14 19:00N 47°57' W 122°18'2 2.7
2018-Apr-14 18:13N 47°58' W 122°21'210.2
2018-Apr-14 18:00N 47°57' W 122°18'2 2.1
2018-Apr-14 17:11N 47°58' W 122°21'2 9.9
2018-Apr-14 17:00N 47°57' W 122°18'2 2.7
2018-Apr-14 16:12N 47°58' W 122°21'211.2
2018-Apr-14 16:00N 47°57' W 122°18'2 1.8
2018-Apr-14 15:08N 47°58' W 122°20'2 8.4
2018-Apr-14 14:57N 47°57' W 122°18'1 1.8
2018-Apr-14 14:08N 47°58' W 122°20'111.1
2018-Apr-14 14:00N 47°57' W 122°18'2 2.2
2018-Apr-14 13:09N 47°58' W 122°21'212.8
2018-Apr-14 13:00N 47°57' W 122°18'2 0.4
2018-Apr-14 08:16N 47°58' W 122°21'2 8.0
2018-Apr-14 08:00N 47°57' W 122°18'2 2.6
2018-Apr-14 07:13N 47°58' W 122°21'2 9.4
2018-Apr-14 07:00N 47°57' W 122°18'2 2.0
2018-Apr-14 06:11N 47°58' W 122°20'2 9.4
2018-Apr-14 06:00N 47°57' W 122°18'2 3.3
2018-Apr-14 05:19N 47°58' W 122°21'2 7.4
2018-Apr-14 05:00N 47°57' W 122°18'2 4.0
2018-Apr-14 04:25N 47°58' W 122°21'2 5.7
2018-Apr-14 04:00N 47°57' W 122°18'2 4.6
2018-Apr-14 03:30N 47°58' W 122°21'2 4.7
2018-Apr-14 03:00N 47°57' W 122°18'2 4.1
2018-Apr-14 02:27N 47°58' W 122°21'2 5.1
2018-Apr-14 01:59N 47°57' W 122°18'2 2.8
2018-Apr-14 01:25N 47°58' W 122°20'2 4.0
2018-Apr-14 01:00N 47°57' W 122°18'2 3.8
2018-Apr-14 00:28N 47°58' W 122°21'2 4.4
2018-Apr-14 00:00N 47°57' W 122°18'2 3.8
2018-Apr-13 23:26N 47°58' W 122°21'2 5.3
2018-Apr-13 23:00N 47°57' W 122°18'1 1.7
2018-Apr-13 22:14N 47°57' W 122°20'1 6.0
2018-Apr-13 22:00N 47°57' W 122°18'2 2.9
2018-Apr-13 21:16N 47°58' W 122°21'2 8.4
2018-Apr-13 21:00N 47°57' W 122°18'2 1.8
2018-Apr-13 20:10N 47°58' W 122°20'2 9.0
2018-Apr-13 20:00N 47°57' W 122°18'2 4.4
2018-Apr-13 19:28N 47°58' W 122°21'  

Dump ship's entire track history